Terminal Aerodrome Forecast
Issued by NWS Wilmington, OH

Current Version | Previous Version | Graphics & Text | Print | Product List | Glossary On
Versions: 1 2 3 4 5 6 7 8 9 10 11 12 13 14 15
611
FTUS41 KILN 171740
TAFDAY
TAF
KDAY 171740Z 1718/1818 22013G23KT P6SM -SHRA VCTS SCT025 BKN035CB
      TEMPO 1718/1721 4SM -TSRA BKN025CB
     FM172200 22010KT P6SM VCSH BKN035
     FM180700 24007KT 4SM BR BKN015
     FM181300 26012KT P6SM BKN025
     FM181700 27012G20KT P6SM BKN040=

USA.gov is the U.S. government's official web portal to all federal, state and local government web resources and services.